Juist Airport

EDWJ · Lower Saxony, Germany

METAR history EDWJ · Juist Airport

Below you see METARs of the last few days. Select a year to browse through older METARs, from the year 2007 onwards.

December 3, 2022

Time Code Weather Temp. Visibility Ceiling Wind METAR/SPECI
22:20
M
1 °C 10 km+ 1,600 ft 070° 070° 7 kt SPECI EDWE 032120Z AUTO 07007KT 9999 // OVC016/// 01/M01 Q1021
22:50
M
1 °C 10 km+ 1,300 ft 060° 060° 6 kt METAR EDWE 032150Z AUTO 06006KT 9999 // OVC013/// 01/M01 Q1021
22:20
M
1 °C 10 km+ 1,600 ft 070° 070° 7 kt METAR EDWE 032120Z AUTO 07007KT 9999 // OVC016/// 01/M01 Q1021
21:50
M
0 °C 10 km+ 1,600 ft 070° 070° 6 kt METAR EDWE 032050Z AUTO 07006KT 9999 // BKN016/// BKN022/// 00/M02 Q1022
21:20
V
0 °C 10 km+ - 070° 070° 7 kt METAR EDWE 032020Z AUTO 07007KT 9999 // SCT022/// M00/M02 Q1022
20:50
M
1 °C 10 km+ 2,300 ft 060° 060° 8 kt METAR EDWE 031950Z AUTO 06008KT 9999 // OVC023/// 01/M01 Q1022
20:20
M
1 °C 10 km+ 1,900 ft 070° 070° 8 kt METAR EDWE 031920Z AUTO 07008KT 9999 // OVC019/// 01/M01 Q1022
19:50
M
1 °C 10 km+ 1,800 ft 070° 070° 10 kt METAR EDWE 031850Z AUTO 07010KT 9999 // OVC018/// 01/M01 Q1022
19:20
M
1 °C 10 km+ 1,900 ft 070° 070° 7 kt METAR EDWE 031820Z AUTO 07007KT 9999 // BKN019/// BKN062/// 01/M01 Q1022
18:50
V
1 °C 10 km+ 6,200 ft 060° 060° 7 kt METAR EDWE 031750Z AUTO 06007KT 9999 // BKN062/// 01/M01 Q1022
18:20
V
1 °C 10 km+ - 060° 060° 8 kt METAR EDWE 031720Z AUTO 06008KT 9999 // FEW026/// 01/M01 Q1022
17:50
M
1 °C 10 km+ 2,800 ft 070° 070° 7 kt METAR EDWE 031650Z AUTO 07007KT 9999 // BKN028/// BKN040/// 01/M01 Q1022
17:20
V
2 °C 10 km+ 3,000 ft 060° 060° 7 kt METAR EDWE 031620Z AUTO 06007KT 9999 // OVC030/// 02/M01 Q1022
07:20
V
3 °C 10 km+ 8,700 ft 070° 070° 10 kt METAR EDWE 030620Z AUTO 07010KT 9999 // FEW019/// BKN087/// 03/00 Q1025
06:50
V
3 °C 10 km+ 11,000 ft 070° 070° 9 kt METAR EDWE 030550Z AUTO 07009KT 9999 // FEW021/// OVC110/// 03/00 Q1025
06:20
V
3 °C 10 km+ 8,300 ft 060° 060° 10 kt METAR EDWE 030520Z AUTO 06010KT 9999 // OVC083/// 03/00 Q1025
05:50
V
3 °C 10 km+ 10,000 ft 060° 060° 10 kt METAR EDWE 030450Z AUTO 06010KT 9999 // FEW017/// BKN100/// 03/01 Q1025
05:20
V
3 °C 10 km+ 10,000 ft 070° 070° 11 kt METAR EDWE 030420Z AUTO 07011KT 9999 // FEW019/// OVC100/// 03/01 Q1025
04:50
V
3 °C 10 km+ 10,000 ft 070° 070° 13 kt METAR EDWE 030350Z AUTO 07013KT 9999 // FEW019/// BKN100/// OVC140/// 03/00 Q1025
04:20
M
4 °C 10 km+ 2,100 ft 070° 070° 12 kt METAR EDWE 030320Z AUTO 07012KT 9999 // OVC021/// 04/00 Q1025
03:50
M
4 °C 10 km+ 2,000 ft 070° 070° 11 kt METAR EDWE 030250Z AUTO 07011KT 9999 // OVC020/// 04/01 Q1025
03:20
V
4 °C 10 km+ 7,300 ft 060° 060° 9 kt METAR EDWE 030220Z AUTO 06009KT 9999 // FEW019/// SCT022/// OVC073/// 04/01 Q1025
02:50
M
4 °C 10 km+ 2,100 ft 070° 070° 9 kt METAR EDWE 030150Z AUTO 07009KT 9999 // SCT017/// BKN021/// BKN072/// 04/02 Q1025
02:20
M
4 °C 10 km+ 1,800 ft 060° 060° 9 kt METAR EDWE 030120Z AUTO 06009KT 9999 // BKN018/// BKN022/// OVC091/// 04/02 Q1025
01:50
M
5 °C 10 km+ 1,600 ft 060° 060° 10 kt METAR EDWE 030050Z AUTO 06010KT 9999 // BKN016/// OVC093/// 05/02 Q1025
01:20
M
4 °C 10 km+ 1,400 ft 060° 060° 8 kt METAR EDWE 030020Z AUTO 06008KT 9999 // BKN014/// OVC095/// 04/02 Q1026
00:50
V
5 °C 10 km+ 9,500 ft 060° 060° 10 kt METAR EDWE 022350Z AUTO 06010KT 9999 // FEW018/// SCT021/// BKN095/// 05/02 Q1026
00:20
V
5 °C 10 km+ 9,100 ft 050° 050° 12 kt METAR EDWE 022320Z AUTO 05012KT 9999 // SCT021/// OVC091/// 05/02 Q1026

December 2, 2022

Time Code Weather Temp. Visibility Ceiling Wind METAR/SPECI
23:50
M
4 °C 10 km+ 1,700 ft 050° 050° 10 kt METAR EDWE 022250Z AUTO 05010KT 9999 // FEW013/// BKN017/// OVC081/// 04/02 Q1026
23:20
M
4 °C 10 km+ 1,700 ft 040° 040° 8 kt METAR EDWE 022220Z AUTO 04008KT 9999 // BKN017/// OVC029/// 04/02 Q1026
22:50
M
3 °C 10 km+ 1,800 ft 030° 030° 7 kt METAR EDWE 022150Z AUTO 03007KT 9999 // BKN018/// OVC026/// 03/01 Q1026
22:20
M
3 °C 10 km+ 2,300 ft 030° 030° 5 kt METAR EDWE 022120Z AUTO 03005KT 9999 // OVC023/// 03/00 Q1027
21:50
M
2 °C 10 km+ 2,100 ft 040° 040° 6 kt METAR EDWE 022050Z AUTO 04006KT 9999 // OVC021/// 02/M00 Q1027
21:20
M
2 °C 10 km+ 2,400 ft 040° 040° 7 kt METAR EDWE 022020Z AUTO 04007KT 9999 // BKN024/// OVC029/// 02/M00 Q1027
20:50
M
2 °C 10 km+ 2,800 ft 040° 040° 8 kt METAR EDWE 021950Z AUTO 04008KT 9999 // OVC028/// 02/M01 Q1027
20:20
V
2 °C 10 km+ 3,200 ft 050° 050° 8 kt METAR EDWE 021920Z AUTO 05008KT 9999 // FEW028/// OVC032/// 02/M01 Q1027
19:50
V
2 °C 10 km+ 3,000 ft 060° 060° 8 kt METAR EDWE 021850Z AUTO 06008KT 9999 // OVC030/// 02/M01 Q1028
19:20
M
2 °C 10 km+ 2,700 ft 060° 060° 9 kt METAR EDWE 021820Z AUTO 06009KT 9999 // OVC027/// 02/M01 Q1028
18:50
M
2 °C 10 km+ 2,200 ft 080° 080° 9 kt METAR EDWE 021750Z AUTO 08009KT 050V110 9999 // BKN022/// OVC028/// 02/M01 Q1027
18:20
M
2 °C 10 km+ 2,200 ft 070° 070° 13 kt METAR EDWE 021720Z AUTO 07013KT 9999 // OVC022/// 02/M01 Q1027
17:50
M
2 °C 10 km+ 2,800 ft 060° 060° 9 kt METAR EDWE 021650Z 06009KT 9999 OVC028 02/M01 Q1027
17:20
M
2 °C 9 km 2,900 ft 060° 060° 10 kt METAR EDWE 021620Z 06010KT 9000 FEW018 OVC029 02/M00 Q1027
16:50
V
2 °C 8 km 3,000 ft 060° 060° 8 kt METAR EDWE 021550Z 06008KT 8000 SCT017 OVC030 02/00 Q1027
16:20
V
2 °C 9 km 3,100 ft 060° 060° 8 kt METAR EDWE 021520Z 06008KT 9000 SCT014 SCT018 OVC031 02/M00 Q1027
15:50
V
2 °C 10 km+ 3,100 ft 080° 080° 9 kt METAR EDWE 021450Z 08009KT 9999 OVC031 02/M00 Q1027
15:20
V
3 °C 10 km+ 3,100 ft 070° 070° 8 kt METAR EDWE 021420Z 07008KT 9999 OVC031 03/M00 Q1027
14:50
V
2 °C 10 km+ 3,100 ft 070° 070° 11 kt METAR EDWE 021350Z 07011KT 9999 SCT015 OVC031 02/M01 Q1027
14:20
M
2 °C 10 km+ 1,500 ft 070° 070° 11 kt METAR EDWE 021320Z 07011KT 9999 BKN015 02/M00 Q1027
13:50
M
2 °C 10 km+ 1,400 ft 070° 070° 11 kt METAR EDWE 021250Z 07011KT 9999 OVC014 02/M01 Q1027
13:20
M
2 °C 10 km+ 1,600 ft 070° 070° 13 kt METAR EDWE 021220Z 07013KT 9999 OVC016 02/M01 Q1027
12:50
M
2 °C 10 km+ 2,000 ft 070° 070° 13 kt METAR EDWE 021150Z 07013KT 9999 BKN020 02/M01 Q1027
06:50
M
2 °C 6 km 1,500 ft 070° 070° 6 kt METAR EDWE 020550Z AUTO 07006KT 6000 // FEW010/// BKN015/// BKN100/// 02/01 Q1026
05:50
M
2 °C 6 km 5,100 ft 030° 030° 5 kt METAR EDWE 020450Z AUTO 03005KT 6000 // FEW011/// OVC051/// 02/01 Q1027
05:20
M
2 °C 6 km 4,700 ft 030° 030° 4 kt METAR EDWE 020420Z AUTO 03004KT 6000 // FEW012/// BKN047/// OVC064/// 02/01 Q1027
04:50
M
2 °C 7 km 6,200 ft 060° 060° 4 kt METAR EDWE 020350Z AUTO 06004KT 7000 // SCT012/// SCT016/// OVC062/// 02/01 Q1027
04:20
M
2 °C 8 km 1,200 ft 070° 070° 4 kt METAR EDWE 020320Z AUTO 07004KT 8000 // OVC012/// 02/00 Q1027
03:50
M
2 °C 9 km 1,200 ft 070° 070° 4 kt METAR EDWE 020250Z AUTO 07004KT 9000 // OVC012/// 02/00 Q1027
03:20
M
2 °C 9 km 1,200 ft 050° 050° 3 kt METAR EDWE 020220Z AUTO 05003KT 9000 // OVC012/// 02/00 Q1027
02:50
M
2 °C 9 km 1,600 ft 080° 080° 3 kt METAR EDWE 020150Z AUTO 08003KT 9000 // OVC016/// 02/00 Q1027
02:20
M
2 °C 9 km 1,900 ft 070° 070° 4 kt METAR EDWE 020120Z AUTO 07004KT 9000 // FEW011/// BKN019/// OVC063/// 02/00 Q1028
01:50
M
2 °C 9 km 1,100 ft 070° 070° 8 kt METAR EDWE 020050Z AUTO 07008KT 9000 // BKN011/// OVC063/// 02/00 Q1028
01:20
M
2 °C 8 km 1,200 ft 060° 060° 5 kt METAR EDWE 020020Z AUTO 06005KT 8000 // OVC012/// 02/01 Q1028
00:50
V
2 °C 8 km 4,900 ft 060° 060° 5 kt METAR EDWE 012350Z AUTO 06005KT 8000 // FEW015/// OVC049/// 02/01 Q1028
00:20
V
2 °C 9 km 4,700 ft 050° 050° 5 kt METAR EDWE 012320Z AUTO 05005KT 9000 // FEW018/// BKN047/// 02/00 Q1028

December 1, 2022

Time Code Weather Temp. Visibility Ceiling Wind METAR/SPECI
23:50
M
2 °C 10 km+ 1,700 ft 060° 060° 6 kt METAR EDWE 012250Z AUTO 06006KT 9999 // OVC017/// 02/00 Q1028
23:20
M
3 °C 10 km+ 1,400 ft 060° 060° 7 kt METAR EDWE 012220Z AUTO 06007KT 9999 // BKN014/// OVC062/// 03/01 Q1028
22:50
M
3 °C 9 km 1,500 ft 080° 080° 5 kt METAR EDWE 012150Z AUTO 08005KT 9000 // BKN015/// OVC019/// 03/01 Q1028
22:20
M
3 °C 10 km+ 1,500 ft 090° 090° 7 kt METAR EDWE 012120Z AUTO 09007KT 9999 // OVC015/// 03/01 Q1028
21:50
M
3 °C 9 km 2,000 ft 090° 090° 6 kt METAR EDWE 012050Z AUTO 09006KT 9000 // FEW015/// BKN020/// OVC067/// 03/01 Q1028
21:20
V
3 °C 9 km 6,700 ft 090° 090° 5 kt METAR EDWE 012020Z AUTO 09005KT 9000 // OVC067/// 03/01 Q1028
20:50
V
3 °C 9 km 6,700 ft 090° 090° 5 kt METAR EDWE 011950Z AUTO 09005KT 9000 // OVC067/// 03/01 Q1028
20:20
V
4 °C 10 km+ 6,600 ft 080° 080° 6 kt METAR EDWE 011920Z AUTO 08006KT 9999 // FEW017/// OVC066/// 04/01 Q1029
19:50
V
4 °C 9 km 6,600 ft 070° 070° 7 kt METAR EDWE 011850Z AUTO 07007KT 9000 // FEW021/// OVC066/// 04/02 Q1029
19:20
V
4 °C 8 km 6,400 ft 080° 080° 6 kt METAR EDWE 011820Z AUTO 08006KT 8000 // OVC064/// 04/02 Q1028
18:50
M
4 °C 7 km 6,300 ft 070° 070° 7 kt METAR EDWE 011750Z AUTO 07007KT 7000 // FEW020/// OVC063/// 04/02 Q1028
18:20
M
4 °C 6 km - 060° 060° 5 kt METAR EDWE 011720Z 06005KT 6000 NSC 04/02 Q1028
17:50
M
4 °C 7 km - 050° 050° 5 kt METAR EDWE 011650Z 05005KT 7000 SCT045 04/02 Q1028
17:20
M
4 °C 7 km - 040° 040° 5 kt METAR EDWE 011620Z 04005KT 7000 FEW042 04/02 Q1028
16:50
M
4 °C 6 km 4,000 ft 040° 040° 6 kt METAR EDWE 011550Z 04006KT 6000 BKN040 04/03 Q1028
16:20
M
5 °C 7 km 3,900 ft 070° 070° 5 kt METAR EDWE 011520Z 07005KT 7000 OVC039 05/02 Q1028
15:50
M
5 °C 7 km 3,800 ft 070° 070° 7 kt METAR EDWE 011450Z 07007KT 7000 BKN038 05/03 Q1028
15:20
M
5 °C 6 km 4,000 ft 050° 050° 8 kt METAR EDWE 011420Z 05008KT 6000 BKN040 05/03 Q1028
14:50
M
5 °C 6 km 1,900 ft 050° 050° 7 kt METAR EDWE 011350Z 05007KT 6000 BKN019 BKN031 05/03 Q1028
14:20
M
6 °C 6 km 3,100 ft 070° 070° 5 kt METAR EDWE 011320Z 07005KT 6000 SCT020 BKN031 06/03 Q1028
13:50
M
6 °C 5 km 1,000 ft 080° 080° 4 kt METAR EDWE 011250Z 08004KT 040V110 5000 BKN010 OVC018 06/04 Q1028
13:20
I
5 °C 4.3 km 1,200 ft 070° 070° 5 kt METAR EDWE 011220Z 07005KT 4300 BR OVC012 05/04 Q1028
12:50
I
5 °C 5 km 800 ft 080° 080° 6 kt METAR EDWE 011150Z 08006KT 5000 OVC008 05/04 Q1028

We and third parties follow your internet behavior on our website with cookies. If you continue, we assume you agree with our cookie policy.